createdAt,value
2023-04-19T00:00:09.274Z,10.13
2023-04-19T00:02:40.925Z,10.67
2023-04-19T00:05:12.025Z,9.73
2023-04-19T00:07:41.482Z,10.67
2023-04-19T00:10:10.685Z,9.83
2023-04-19T00:12:38.513Z,10.10
2023-04-19T00:15:07.458Z,9.87
2023-04-19T00:17:35.951Z,11.13
2023-04-19T00:20:05.959Z,10.63
2023-04-19T00:22:33.907Z,10.87
2023-04-19T00:25:03.911Z,11.10
2023-04-19T00:27:31.891Z,11.70
2023-04-19T00:30:00.501Z,11.07
2023-04-19T00:32:28.445Z,11.23
2023-04-19T00:34:56.328Z,11.00
2023-04-19T00:37:24.781Z,10.97
2023-04-19T00:39:52.662Z,10.83
2023-04-19T00:42:21.953Z,11.27
2023-04-19T00:44:49.916Z,11.10
2023-04-19T00:47:18.005Z,11.03
2023-04-19T00:49:46.997Z,11.50
2023-04-19T00:52:14.930Z,10.67
2023-04-19T00:54:44.544Z,11.10
2023-04-19T00:57:15.246Z,12.17
2023-04-19T00:59:45.025Z,11.30
2023-04-19T01:02:12.960Z,11.13
2023-04-19T01:04:42.089Z,11.20
2023-04-19T01:07:10.429Z,11.87
2023-04-19T01:09:42.953Z,11.80
2023-04-19T01:12:10.874Z,10.63
2023-04-19T01:14:38.836Z,10.00
2023-04-19T01:17:08.541Z,11.43
2023-04-19T01:19:37.291Z,10.90
2023-04-19T01:22:06.528Z,10.90
2023-04-19T01:24:35.870Z,10.37
2023-04-19T01:27:03.734Z,10.90
2023-04-19T01:29:31.590Z,10.50
2023-04-19T01:31:59.564Z,11.00
2023-04-19T01:34:28.315Z,10.73
2023-04-19T01:36:56.140Z,10.73
2023-04-19T01:39:24.786Z,11.00
2023-04-19T01:41:54.104Z,11.73
2023-04-19T01:44:22.719Z,10.37
2023-04-19T01:46:50.600Z,11.37
2023-04-19T01:49:18.550Z,11.70
2023-04-19T01:51:46.793Z,11.13
2023-04-19T01:54:14.944Z,11.77
2023-04-19T01:56:43.080Z,11.20
2023-04-19T01:59:15.272Z,12.43
2023-04-19T02:01:43.283Z,11.97
2023-04-19T02:04:11.362Z,11.83
2023-04-19T02:06:39.344Z,12.83
2023-04-19T02:09:08.288Z,12.40
2023-04-19T02:11:36.198Z,12.30
2023-04-19T02:14:04.147Z,11.93
2023-04-19T02:16:35.627Z,12.40
2023-04-19T02:19:04.057Z,13.13
2023-04-19T02:21:32.355Z,13.03
2023-04-19T02:24:00.236Z,12.73
2023-04-19T02:26:28.190Z,13.67
2023-04-19T02:28:56.100Z,13.40
2023-04-19T02:31:24.096Z,14.53
2023-04-19T02:33:53.497Z,15.20
2023-04-19T02:36:21.397Z,14.30
2023-04-19T02:38:49.476Z,14.70
2023-04-19T02:41:17.455Z,15.10
2023-04-19T02:43:45.311Z,16.40
2023-04-19T02:46:17.447Z,16.50
2023-04-19T02:48:45.448Z,16.40
2023-04-19T02:51:17.663Z,16.97
2023-04-19T02:53:45.742Z,17.37
2023-04-19T02:56:16.435Z,18.50
2023-04-19T02:58:44.419Z,19.10
2023-04-19T03:01:13.204Z,18.40
2023-04-19T03:03:41.300Z,19.60
2023-04-19T03:06:09.464Z,18.73
2023-04-19T03:08:38.811Z,19.90
2023-04-19T03:11:07.683Z,19.20
2023-04-19T03:13:35.618Z,19.20
2023-04-19T03:16:04.417Z,20.50
2023-04-19T03:18:33.235Z,20.17
2023-04-19T03:21:03.567Z,20.03
2023-04-19T03:23:40.017Z,20.13
2023-04-19T03:26:07.992Z,19.23
2023-04-19T03:28:41.982Z,19.33
2023-04-19T03:31:24.510Z,18.93
2023-04-19T03:33:54.336Z,20.37
2023-04-19T03:36:27.187Z,20.90
2023-04-19T03:38:56.350Z,20.57
2023-04-19T03:41:25.996Z,22.80
2023-04-19T03:44:09.803Z,21.53
2023-04-19T03:46:38.621Z,21.23
2023-04-19T03:49:06.688Z,21.77
2023-04-19T03:51:34.655Z,21.90
2023-04-19T03:54:03.958Z,21.87
2023-04-19T03:56:31.814Z,23.07
2023-04-19T03:58:59.716Z,22.20
2023-04-19T04:01:29.170Z,20.63
2023-04-19T04:03:57.928Z,21.80
2023-04-19T04:06:26.772Z,22.77
2023-04-19T04:08:54.767Z,23.63
2023-04-19T04:11:24.077Z,23.53
2023-04-19T04:13:51.897Z,23.77
2023-04-19T04:16:24.281Z,24.37
2023-04-19T04:18:54.977Z,25.00
2023-04-19T04:21:27.114Z,25.43
2023-04-19T04:23:56.839Z,25.33
2023-04-19T04:26:35.308Z,25.87
2023-04-19T04:29:24.843Z,26.57
2023-04-19T04:31:56.900Z,25.67
2023-04-19T04:34:29.160Z,27.50
2023-04-19T04:37:05.822Z,28.10
2023-04-19T04:39:39.018Z,27.67
2023-04-19T04:42:10.136Z,28.60
2023-04-19T04:44:38.877Z,27.97
2023-04-19T04:47:08.273Z,27.97
2023-04-19T04:49:42.536Z,27.73
2023-04-19T04:52:10.471Z,28.13
2023-04-19T04:54:48.180Z,29.23
2023-04-19T04:57:25.527Z,29.23
2023-04-19T04:59:53.415Z,28.80
2023-04-19T05:02:22.594Z,29.07
2023-04-19T05:04:52.289Z,29.13
2023-04-19T05:07:20.201Z,29.23
2023-04-19T05:09:48.101Z,28.07
2023-04-19T05:12:20.640Z,26.90
2023-04-19T05:14:50.038Z,28.83
2023-04-19T05:17:18.156Z,29.50
2023-04-19T05:19:47.125Z,29.83
2023-04-19T05:22:15.866Z,29.50
2023-04-19T05:24:43.984Z,29.07
2023-04-19T05:27:12.292Z,29.53
2023-04-19T05:29:40.344Z,29.70
2023-04-19T05:32:09.805Z,27.53
2023-04-19T05:34:45.020Z,28.07
2023-04-19T05:37:15.856Z,27.57
2023-04-19T05:39:44.560Z,26.67
2023-04-19T05:42:12.834Z,28.77
2023-04-19T05:44:40.690Z,26.73
2023-04-19T05:47:09.961Z,29.60
2023-04-19T05:50:04.208Z,29.50
2023-04-19T05:52:35.928Z,28.27
2023-04-19T05:55:05.874Z,28.93
2023-04-19T05:57:35.435Z,27.37
2023-04-19T06:00:08.937Z,29.07
2023-04-19T06:02:50.190Z,28.20
2023-04-19T06:05:18.436Z,29.80
2023-04-19T06:07:54.683Z,30.00
2023-04-19T06:10:33.746Z,28.97
2023-04-19T06:13:08.949Z,27.73
2023-04-19T06:15:36.874Z,28.00
2023-04-19T06:18:10.121Z,29.17
2023-04-19T06:20:38.590Z,27.80
2023-04-19T06:23:07.238Z,28.00
2023-04-19T06:25:35.240Z,28.13
2023-04-19T06:28:03.076Z,28.53
2023-04-19T06:30:30.914Z,28.67
2023-04-19T06:32:58.697Z,28.60
2023-04-19T06:35:27.950Z,29.83
2023-04-19T06:37:56.042Z,27.93
2023-04-19T06:40:24.098Z,27.43
2023-04-19T06:42:52.202Z,27.80
2023-04-19T06:45:20.222Z,27.57
2023-04-19T06:47:48.351Z,27.47
2023-04-19T06:50:16.822Z,26.37
2023-04-19T06:52:46.003Z,26.13
2023-04-19T06:55:13.757Z,27.63
2023-04-19T06:57:42.538Z,27.00
2023-04-19T07:00:12.137Z,26.53
2023-04-19T07:02:40.127Z,25.57
2023-04-19T07:05:09.292Z,26.50
2023-04-19T07:07:38.238Z,25.17
2023-04-19T07:10:09.147Z,25.73
2023-04-19T07:12:36.928Z,26.33
2023-04-19T07:15:05.533Z,24.47
2023-04-19T07:17:35.681Z,20.07
2023-04-19T07:20:03.839Z,19.77
2023-04-19T07:22:31.684Z,20.50
2023-04-19T07:24:59.663Z,20.47
2023-04-19T07:27:28.850Z,21.23
2023-04-19T07:29:56.748Z,20.33
2023-04-19T07:32:24.795Z,21.43
2023-04-19T07:34:52.989Z,21.07
2023-04-19T07:37:20.999Z,20.37
2023-04-19T07:39:48.812Z,21.93
2023-04-19T07:42:16.719Z,21.13
2023-04-19T07:44:45.870Z,20.37
2023-04-19T07:47:13.685Z,19.93
2023-04-19T07:49:41.522Z,20.00
2023-04-19T07:52:10.428Z,22.60
2023-04-19T07:54:39.308Z,20.07
2023-04-19T07:57:09.400Z,19.53
2023-04-19T07:59:37.316Z,21.87
2023-04-19T08:02:07.665Z,19.63
2023-04-19T08:04:35.725Z,19.70
2023-04-19T08:07:04.825Z,19.20
2023-04-19T08:09:34.876Z,20.37
2023-04-19T08:12:02.662Z,19.50
2023-04-19T08:14:40.650Z,20.37
2023-04-19T08:17:26.797Z,18.77
2023-04-19T08:19:57.148Z,18.70
2023-04-19T08:22:25.083Z,19.40
2023-04-19T08:24:53.043Z,17.87
2023-04-19T08:27:21.446Z,19.33
2023-04-19T08:29:49.335Z,19.13
2023-04-19T08:32:18.574Z,19.37
2023-04-19T08:34:46.404Z,19.80
2023-04-19T08:37:14.189Z,21.13
2023-04-19T08:39:41.964Z,20.97
2023-04-19T08:42:18.302Z,22.00
2023-04-19T08:45:23.541Z,19.87
2023-04-19T08:47:59.888Z,21.07
2023-04-19T08:53:12.283Z,21.00
2023-04-19T08:58:30.602Z,21.50
2023-04-19T09:01:06.394Z,21.17
2023-04-19T09:03:47.275Z,20.90
2023-04-19T09:06:24.255Z,21.10
2023-04-19T09:08:57.842Z,21.47
2023-04-19T09:11:38.083Z,20.37
2023-04-19T09:14:10.043Z,21.27
2023-04-19T09:16:39.319Z,20.27
2023-04-19T09:19:22.281Z,20.10
2023-04-19T09:21:54.414Z,20.87
2023-04-19T09:27:11.942Z,20.10
2023-04-19T09:29:40.008Z,20.03
2023-04-19T09:32:08.008Z,18.80
2023-04-19T09:34:37.173Z,18.33
2023-04-19T09:37:21.543Z,18.67
2023-04-19T09:40:04.128Z,18.80
2023-04-19T09:45:29.226Z,19.03
2023-04-19T09:48:07.445Z,17.70
2023-04-19T09:50:46.241Z,18.03
2023-04-19T09:53:22.954Z,19.60
2023-04-19T09:56:00.392Z,19.13
2023-04-19T10:01:13.399Z,18.23
2023-04-19T10:03:45.672Z,18.83
2023-04-19T10:06:40.174Z,18.67
2023-04-19T10:09:05.803Z,18.53
2023-04-19T10:11:38.858Z,17.87
2023-04-19T10:14:09.073Z,17.77
2023-04-19T10:16:38.301Z,17.73
2023-04-19T10:19:11.436Z,18.30
2023-04-19T10:21:42.475Z,17.60
2023-04-19T10:24:11.107Z,16.73
2023-04-19T10:27:08.546Z,16.03
2023-04-19T10:30:01.910Z,15.60
2023-04-19T10:32:30.821Z,16.53
2023-04-19T10:35:04.651Z,16.10
2023-04-19T10:37:33.886Z,14.80
2023-04-19T10:40:01.800Z,16.13
2023-04-19T10:43:03.155Z,16.03
2023-04-19T10:45:33.827Z,15.57
2023-04-19T10:48:04.614Z,16.17
2023-04-19T10:50:58.695Z,16.27
2023-04-19T10:53:47.600Z,15.97
2023-04-19T10:56:16.585Z,15.97
2023-04-19T10:59:21.921Z,16.93
2023-04-19T11:01:53.280Z,16.50
2023-04-19T11:04:24.010Z,15.93
2023-04-19T11:07:03.473Z,15.30
2023-04-19T11:09:35.446Z,15.97
2023-04-19T11:12:08.325Z,15.90
2023-04-19T11:14:38.131Z,15.97
2023-04-19T11:17:16.595Z,16.50
2023-04-19T11:19:45.892Z,16.47
2023-04-19T11:22:13.689Z,15.80
2023-04-19T11:24:48.157Z,16.73
2023-04-19T11:27:16.401Z,18.23
2023-04-19T11:29:44.333Z,17.57
2023-04-19T11:32:12.282Z,17.53
2023-04-19T11:34:40.592Z,17.17
2023-04-19T11:37:08.400Z,17.53
2023-04-19T11:39:48.377Z,18.37
2023-04-19T11:42:20.531Z,18.40
2023-04-19T11:44:52.769Z,19.23
2023-04-19T11:47:21.052Z,19.27
2023-04-19T11:49:48.953Z,18.60
2023-04-19T11:52:25.272Z,19.50
2023-04-19T11:54:55.282Z,19.97
2023-04-19T11:57:30.115Z,19.83
2023-04-19T12:00:10.206Z,19.40
2023-04-19T12:02:43.916Z,19.40
2023-04-19T12:05:13.111Z,17.83
2023-04-19T12:07:59.934Z,15.93
2023-04-19T12:10:29.152Z,15.80
2023-04-19T12:12:56.962Z,17.87
2023-04-19T12:15:26.450Z,19.60
2023-04-19T12:18:00.103Z,21.90
2023-04-19T12:20:35.384Z,22.07
2023-04-19T12:23:03.670Z,23.97
2023-04-19T12:25:34.172Z,24.30
2023-04-19T12:28:03.984Z,24.47
2023-04-19T12:30:31.878Z,24.37
2023-04-19T12:33:00.588Z,25.50
2023-04-19T12:35:29.188Z,24.20
2023-04-19T12:37:59.235Z,18.93
2023-04-19T12:40:28.708Z,19.73
2023-04-19T12:42:58.058Z,20.83
2023-04-19T12:45:26.821Z,21.10
2023-04-19T12:47:54.738Z,23.20
2023-04-19T12:50:22.631Z,23.10
2023-04-19T12:52:51.845Z,23.87
2023-04-19T12:55:19.934Z,25.23
2023-04-19T12:57:48.064Z,23.37
2023-04-19T13:00:18.177Z,22.33
2023-04-19T13:02:48.115Z,22.37
2023-04-19T13:05:16.237Z,21.60
2023-04-19T13:07:44.025Z,21.83
2023-04-19T13:10:12.451Z,21.73
2023-04-19T13:12:40.677Z,22.70
2023-04-19T13:15:10.082Z,22.63
2023-04-19T13:17:39.420Z,23.47
2023-04-19T13:20:09.517Z,22.83
2023-04-19T13:22:37.418Z,23.47
2023-04-19T13:25:06.179Z,23.43
2023-04-19T13:27:33.955Z,22.90
2023-04-19T13:30:02.014Z,22.43
2023-04-19T13:32:30.306Z,23.47
2023-04-19T13:35:01.138Z,22.17
2023-04-19T13:37:29.298Z,21.57
2023-04-19T13:40:14.968Z,23.57
2023-04-19T13:42:45.676Z,21.20
2023-04-19T13:45:13.932Z,22.07
2023-04-19T13:47:41.832Z,23.60
2023-04-19T13:50:12.830Z,20.20
2023-04-19T13:52:44.747Z,19.03
2023-04-19T13:55:12.614Z,18.10
2023-04-19T13:57:40.413Z,20.67
2023-04-19T14:00:09.544Z,21.30
2023-04-19T14:02:37.592Z,16.67
2023-04-19T14:05:06.558Z,18.00
2023-04-19T14:07:35.866Z,17.93
2023-04-19T14:10:03.880Z,17.83
2023-04-19T14:12:31.852Z,17.83
2023-04-19T14:15:00.100Z,15.80
2023-04-19T14:17:28.132Z,15.43
2023-04-19T14:19:56.858Z,15.80
2023-04-19T14:22:25.482Z,15.03
2023-04-19T14:24:54.636Z,11.83
2023-04-19T14:27:22.446Z,9.87
2023-04-19T14:29:50.397Z,5.80
2023-04-19T14:32:26.132Z,4.20
2023-04-19T14:34:54.989Z,3.50
2023-04-19T14:37:23.963Z,3.33
2023-04-19T14:39:52.090Z,3.80
2023-04-19T14:42:22.875Z,3.47
2023-04-19T14:44:52.531Z,4.30
2023-04-19T14:47:21.201Z,4.67
2023-04-19T14:49:49.153Z,3.70
2023-04-19T14:52:17.321Z,3.80
2023-04-19T14:54:45.227Z,3.53
2023-04-19T14:57:15.286Z,4.03
2023-04-19T14:59:44.454Z,4.47
2023-04-19T15:02:13.872Z,4.77
2023-04-19T15:04:42.397Z,4.47
2023-04-19T15:07:10.637Z,4.60
2023-04-19T15:09:39.269Z,4.80
2023-04-19T15:12:09.471Z,5.10
2023-04-19T15:14:37.529Z,5.60
2023-04-19T15:17:07.031Z,5.90
2023-04-19T15:19:34.903Z,5.33
2023-04-19T15:22:03.970Z,5.67
2023-04-19T15:24:31.862Z,5.47
2023-04-19T15:27:00.006Z,5.47
2023-04-19T15:29:27.876Z,4.87
2023-04-19T15:31:55.813Z,5.30
2023-04-19T15:34:25.441Z,5.77
2023-04-19T15:36:53.337Z,6.30
2023-04-19T15:39:21.218Z,6.27
2023-04-19T15:41:50.081Z,6.67
2023-04-19T15:44:17.860Z,7.03
2023-04-19T15:46:45.737Z,7.13
2023-04-19T15:49:13.647Z,7.07
2023-04-19T15:51:42.908Z,8.30
2023-04-19T15:54:11.742Z,8.30
2023-04-19T15:56:39.485Z,8.53
2023-04-19T15:59:10.182Z,7.70
2023-04-19T16:01:38.231Z,9.03
2023-04-19T16:04:06.507Z,8.73
2023-04-19T16:06:34.506Z,7.70
2023-04-19T16:09:03.757Z,9.07
2023-04-19T16:11:31.571Z,8.63
2023-04-19T16:13:59.372Z,8.40
2023-04-19T16:16:30.828Z,8.03
2023-04-19T16:18:58.712Z,9.60
2023-04-19T16:21:28.691Z,8.60
2023-04-19T16:23:56.630Z,7.80
2023-04-19T16:26:25.736Z,8.50
2023-04-19T16:28:53.623Z,8.43
2023-04-19T16:31:21.487Z,6.63
2023-04-19T16:33:49.298Z,5.80
2023-04-19T16:36:17.167Z,6.20
2023-04-19T16:38:44.953Z,6.13
2023-04-19T16:41:12.825Z,6.33
2023-04-19T16:43:42.102Z,7.30
2023-04-19T16:46:10.860Z,7.27
2023-04-19T16:48:38.745Z,6.30
2023-04-19T16:51:06.797Z,6.13
2023-04-19T16:53:34.618Z,6.53
2023-04-19T16:56:03.569Z,6.17
2023-04-19T16:58:31.706Z,6.00
2023-04-19T17:01:02.155Z,6.03
2023-04-19T17:03:30.587Z,6.07
2023-04-19T17:05:58.573Z,6.73
2023-04-19T17:08:26.666Z,5.73
2023-04-19T17:10:54.515Z,5.90
2023-04-19T17:13:22.413Z,6.47
2023-04-19T17:15:50.415Z,6.70
2023-04-19T17:18:19.714Z,6.70
2023-04-19T17:20:47.479Z,6.70
2023-04-19T17:23:16.623Z,6.63
2023-04-19T17:25:44.417Z,6.40
2023-04-19T17:28:12.401Z,5.70
2023-04-19T17:30:40.212Z,6.57
2023-04-19T17:33:08.115Z,5.90
2023-04-19T17:35:37.471Z,5.53
2023-04-19T17:38:05.372Z,6.00
2023-04-19T17:40:33.220Z,6.00
2023-04-19T17:43:01.090Z,6.20
2023-04-19T17:45:28.982Z,5.97
2023-04-19T17:47:57.040Z,5.70
2023-04-19T17:50:26.400Z,5.63
2023-04-19T17:52:56.037Z,6.30
2023-04-19T17:55:25.421Z,6.03
2023-04-19T17:57:53.278Z,6.23
2023-04-19T18:00:21.682Z,6.53
2023-04-19T18:02:50.429Z,6.60
2023-04-19T18:05:18.487Z,6.53
2023-04-19T18:07:47.754Z,6.10
2023-04-19T18:10:16.974Z,6.73
2023-04-19T18:12:44.866Z,6.40
2023-04-19T18:15:13.147Z,6.83
2023-04-19T18:17:41.137Z,6.20
2023-04-19T18:20:11.280Z,6.03
2023-04-19T18:22:41.665Z,6.13
2023-04-19T18:25:10.845Z,6.33
2023-04-19T18:27:40.322Z,6.30
2023-04-19T18:30:09.212Z,6.10
2023-04-19T18:32:37.582Z,6.33
2023-04-19T18:35:08.795Z,6.10
2023-04-19T18:37:36.853Z,5.80
2023-04-19T18:40:07.025Z,6.30
2023-04-19T18:42:35.003Z,5.90
2023-04-19T18:45:05.047Z,5.63
2023-04-19T18:47:32.908Z,5.47
2023-04-19T18:50:05.620Z,5.60
2023-04-19T18:52:35.287Z,5.40
2023-04-19T18:55:03.656Z,5.37
2023-04-19T18:57:34.640Z,5.67
2023-04-19T19:00:07.043Z,5.60
2023-04-19T19:02:36.986Z,6.00
2023-04-19T19:05:07.464Z,5.80
2023-04-19T19:07:37.524Z,6.20
2023-04-19T19:10:18.469Z,6.17
2023-04-19T19:12:48.949Z,6.77
2023-04-19T19:15:18.966Z,7.53
2023-04-19T19:17:49.741Z,5.93
2023-04-19T19:20:19.393Z,5.80
2023-04-19T19:22:47.285Z,5.97
2023-04-19T19:25:15.138Z,5.90
2023-04-19T19:27:58.251Z,6.13
2023-04-19T19:30:33.951Z,6.37
2023-04-19T19:33:04.575Z,6.23
2023-04-19T19:35:32.616Z,6.20
2023-04-19T19:38:00.469Z,5.50
2023-04-19T19:40:31.018Z,5.90
2023-04-19T19:43:00.260Z,5.63
2023-04-19T19:45:29.043Z,5.23
2023-04-19T19:47:59.846Z,5.47
2023-04-19T19:53:00.612Z,5.40
2023-04-19T19:55:28.931Z,5.27
2023-04-19T20:02:59.626Z,5.57
2023-04-19T20:05:28.129Z,6.03
2023-04-19T20:08:07.798Z,6.30
2023-04-19T20:10:36.499Z,5.23
2023-04-19T20:13:06.259Z,5.60
2023-04-19T20:15:34.686Z,5.53
2023-04-19T20:18:04.284Z,6.00
2023-04-19T20:20:34.298Z,5.60
2023-04-19T20:23:02.071Z,5.77
2023-04-19T20:25:31.164Z,6.20
2023-04-19T20:27:59.428Z,6.17
2023-04-19T20:30:27.426Z,5.93
2023-04-19T20:32:55.294Z,5.87
2023-04-19T20:35:24.578Z,6.73
2023-04-19T20:37:52.574Z,6.97
2023-04-19T20:40:20.382Z,6.13
2023-04-19T20:42:48.465Z,6.90
2023-04-19T20:45:16.277Z,6.43
2023-04-19T20:47:44.185Z,6.87
2023-04-19T20:50:12.265Z,5.90
2023-04-19T20:52:41.721Z,6.37
2023-04-19T20:55:10.400Z,6.70
2023-04-19T20:57:38.225Z,6.07
2023-04-19T21:00:08.576Z,6.17
2023-04-19T21:02:36.712Z,6.60
2023-04-19T21:05:04.915Z,6.03
2023-04-19T21:07:33.580Z,6.20
2023-04-19T21:10:02.902Z,6.40
2023-04-19T21:12:30.681Z,6.00
2023-04-19T21:14:58.482Z,6.27
2023-04-19T21:17:27.669Z,5.50
2023-04-19T21:19:55.471Z,5.70
2023-04-19T21:22:23.317Z,6.20
2023-04-19T21:24:51.308Z,5.63
2023-04-19T21:27:20.641Z,6.00
2023-04-19T21:29:48.460Z,6.20
2023-04-19T21:32:16.281Z,6.17
2023-04-19T21:34:45.039Z,6.63
2023-04-19T21:37:12.801Z,5.13
2023-04-19T21:39:40.643Z,6.40
2023-04-19T21:42:08.400Z,5.40
2023-04-19T21:44:37.765Z,6.00
2023-04-19T21:47:05.720Z,6.00
2023-04-19T21:49:33.533Z,5.97
2023-04-19T21:52:01.392Z,6.27
2023-04-19T21:54:33.812Z,6.47
2023-04-19T21:57:03.146Z,6.43
2023-04-19T21:59:31.483Z,6.27
2023-04-19T22:02:01.154Z,6.30
2023-04-19T22:04:30.893Z,6.57
2023-04-19T22:07:02.039Z,7.47
2023-04-19T22:09:30.663Z,8.57
2023-04-19T22:11:58.523Z,6.70
2023-04-19T22:14:26.379Z,6.37
2023-04-19T22:16:54.924Z,6.33
2023-04-19T22:19:24.842Z,6.30
2023-04-19T22:21:53.455Z,6.43
2023-04-19T22:24:22.225Z,7.13
2023-04-19T22:26:51.106Z,6.90
2023-04-19T22:29:19.341Z,6.87
2023-04-19T22:31:47.365Z,6.50
2023-04-19T22:34:15.218Z,6.67
2023-04-19T22:36:44.460Z,6.47
2023-04-19T22:39:12.412Z,6.43
2023-04-19T22:41:40.299Z,6.93
2023-04-19T22:44:08.184Z,6.90
2023-04-19T22:46:37.213Z,7.30
2023-04-19T22:49:05.074Z,7.57
2023-04-19T22:51:34.082Z,7.90
2023-04-19T22:54:03.423Z,6.90
2023-04-19T22:56:32.522Z,7.30
2023-04-19T22:59:00.547Z,6.40
2023-04-19T23:01:28.400Z,6.93
2023-04-19T23:03:56.231Z,7.43
2023-04-19T23:06:24.559Z,7.33
2023-04-19T23:08:52.795Z,7.40
2023-04-19T23:11:24.801Z,8.20
2023-04-19T23:13:54.310Z,7.83
2023-04-19T23:16:24.688Z,7.87
2023-04-19T23:18:52.876Z,7.70
2023-04-19T23:21:20.755Z,7.70
2023-04-19T23:23:48.492Z,8.83
2023-04-19T23:26:16.273Z,8.57
2023-04-19T23:28:45.436Z,8.20
2023-04-19T23:31:13.414Z,9.67
2023-04-19T23:33:41.286Z,9.27
2023-04-19T23:36:09.623Z,8.40
2023-04-19T23:38:37.461Z,8.43
2023-04-19T23:41:05.536Z,8.83
2023-04-19T23:43:33.329Z,10.00
2023-04-19T23:46:02.518Z,9.73
2023-04-19T23:48:30.362Z,10.37
2023-04-19T23:50:58.144Z,10.90
2023-04-19T23:53:26.113Z,10.83
2023-04-19T23:55:53.965Z,11.30
2023-04-19T23:58:21.836Z,11.63
